createdAt,value
2019-05-21T00:02:22.480Z,31.13
2019-05-21T00:04:54.175Z,32.70
2019-05-21T00:07:25.898Z,31.77
2019-05-21T00:09:57.598Z,34.87
2019-05-21T00:12:29.324Z,35.87
2019-05-21T00:15:01.024Z,35.23
2019-05-21T00:17:32.748Z,36.53
2019-05-21T00:20:05.745Z,33.97
2019-05-21T00:22:37.493Z,34.73
2019-05-21T00:25:09.591Z,33.30
2019-05-21T00:27:41.398Z,37.07
2019-05-21T00:30:50.236Z,35.60
2019-05-21T00:33:58.951Z,37.03
2019-05-21T00:37:13.647Z,37.50
2019-05-21T00:40:22.612Z,36.97
2019-05-21T00:42:54.551Z,35.00
2019-05-21T00:45:26.257Z,35.37
2019-05-21T00:47:57.985Z,32.77
2019-05-21T00:50:29.775Z,31.40
2019-05-21T00:53:01.498Z,31.87
2019-05-21T00:55:33.188Z,28.17
2019-05-21T00:58:05.017Z,30.47
2019-05-21T01:00:37.028Z,30.03
2019-05-21T01:03:08.874Z,29.57
2019-05-21T01:05:40.683Z,32.47
2019-05-21T01:08:12.447Z,34.10
2019-05-21T01:10:44.216Z,35.97
2019-05-21T01:13:15.933Z,36.00
2019-05-21T01:15:47.644Z,34.70
2019-05-21T01:18:19.382Z,31.50
2019-05-21T01:20:51.215Z,29.57
2019-05-21T01:23:23.292Z,28.50
2019-05-21T01:25:54.991Z,29.67
2019-05-21T01:28:26.824Z,29.50
2019-05-21T01:30:58.598Z,28.63
2019-05-21T01:33:30.342Z,28.20
2019-05-21T01:36:02.237Z,30.27
2019-05-21T01:38:33.948Z,31.03
2019-05-21T01:41:05.636Z,30.70
2019-05-21T01:43:37.470Z,30.90
2019-05-21T01:46:09.253Z,30.73
2019-05-21T01:48:41.077Z,28.93
2019-05-21T01:51:12.783Z,31.60
2019-05-21T01:53:44.597Z,31.10
2019-05-21T01:56:16.320Z,31.23
2019-05-21T01:58:48.157Z,34.00
2019-05-21T02:01:20.056Z,31.83
2019-05-21T02:03:51.863Z,30.77
2019-05-21T02:06:23.984Z,29.30
2019-05-21T02:08:55.704Z,29.50
2019-05-21T02:11:27.440Z,29.70
2019-05-21T02:13:59.174Z,28.80
2019-05-21T02:16:30.871Z,30.33
2019-05-21T02:19:02.770Z,30.37
2019-05-21T02:21:34.556Z,29.10
2019-05-21T02:24:06.324Z,30.13
2019-05-21T02:26:38.117Z,31.63
2019-05-21T02:29:09.852Z,30.13
2019-05-21T02:31:41.571Z,31.10
2019-05-21T02:34:13.397Z,29.10
2019-05-21T02:36:45.142Z,31.63
2019-05-21T02:39:16.881Z,31.20
2019-05-21T02:41:48.589Z,32.87
2019-05-21T02:44:20.418Z,32.53
2019-05-21T02:46:52.249Z,32.37
2019-05-21T02:49:24.080Z,35.63
2019-05-21T02:51:55.905Z,32.90
2019-05-21T02:54:40.360Z,34.53
2019-05-21T02:57:01.355Z,34.77
2019-05-21T02:59:33.177Z,34.27
2019-05-21T03:02:14.527Z,35.27
2019-05-21T03:04:46.335Z,32.93
2019-05-21T03:07:18.048Z,34.50
2019-05-21T03:09:49.857Z,37.57
2019-05-21T03:12:21.606Z,46.40
2019-05-21T03:14:53.408Z,40.73
2019-05-21T03:17:25.115Z,41.43
2019-05-21T03:19:56.829Z,43.80
2019-05-21T03:22:28.692Z,44.50
2019-05-21T03:25:02.334Z,42.53
2019-05-21T03:27:34.065Z,47.13
2019-05-21T03:30:06.665Z,51.30
2019-05-21T03:32:38.462Z,54.00
2019-05-21T03:35:10.594Z,51.97
2019-05-21T03:37:42.404Z,58.83
2019-05-21T03:40:14.317Z,56.17
2019-05-21T03:42:46.025Z,52.43
2019-05-21T03:45:18.064Z,51.17
2019-05-21T03:47:49.871Z,50.27
2019-05-21T03:50:21.705Z,51.63
2019-05-21T03:52:53.425Z,51.27
2019-05-21T03:55:25.247Z,51.53
2019-05-21T03:57:57.067Z,56.03
2019-05-21T04:00:28.813Z,55.67
2019-05-21T04:03:00.525Z,58.67
2019-05-21T04:05:35.682Z,63.60
2019-05-21T04:08:09.782Z,56.53
2019-05-21T04:10:41.616Z,51.77
2019-05-21T04:13:13.413Z,52.80
2019-05-21T04:16:04.934Z,50.97
2019-05-21T04:18:56.476Z,49.47
2019-05-21T04:21:28.246Z,49.70
2019-05-21T04:24:00.034Z,46.83
2019-05-21T04:26:31.861Z,48.00
2019-05-21T04:29:03.561Z,49.40
2019-05-21T04:31:35.374Z,51.80
2019-05-21T04:34:07.183Z,46.20
2019-05-21T04:36:39.001Z,44.80
2019-05-21T04:39:10.705Z,40.67
2019-05-21T04:41:42.509Z,37.10
2019-05-21T04:44:14.213Z,32.80
2019-05-21T04:46:45.974Z,28.10
2019-05-21T04:49:17.777Z,24.20
2019-05-21T04:51:49.577Z,22.17
2019-05-21T04:54:21.401Z,22.47
2019-05-21T04:56:53.217Z,20.40
2019-05-21T04:59:24.927Z,19.27
2019-05-21T05:01:56.640Z,17.03
2019-05-21T05:04:28.367Z,15.00
2019-05-21T05:07:00.084Z,15.93
2019-05-21T05:09:31.785Z,16.03
2019-05-21T05:12:03.605Z,15.00
2019-05-21T05:14:35.311Z,14.47
2019-05-21T05:17:07.056Z,13.87
2019-05-21T05:19:38.898Z,13.37
2019-05-21T05:22:10.717Z,13.00
2019-05-21T05:24:42.434Z,12.30
2019-05-21T05:27:14.161Z,13.17
2019-05-21T05:29:45.866Z,12.57
2019-05-21T05:32:17.597Z,12.17
2019-05-21T05:34:49.311Z,11.27
2019-05-21T05:37:21.138Z,12.23
2019-05-21T05:39:52.968Z,11.22
2019-05-21T05:42:24.785Z,11.48
2019-05-21T05:44:56.595Z,11.63
2019-05-21T05:47:28.337Z,10.20
2019-05-21T05:50:02.788Z,11.55
2019-05-21T05:52:34.847Z,10.75
2019-05-21T05:55:07.263Z,10.88
2019-05-21T05:57:39.517Z,10.78
2019-05-21T06:00:12.913Z,10.32
2019-05-21T06:02:44.819Z,11.15
2019-05-21T06:05:17.054Z,10.28
2019-05-21T06:07:59.361Z,9.75
2019-05-21T06:10:22.700Z,11.30
2019-05-21T06:12:54.435Z,10.38
2019-05-21T06:15:26.344Z,10.75
2019-05-21T06:17:58.068Z,10.20
2019-05-21T06:20:29.876Z,10.10
2019-05-21T06:23:01.593Z,9.50
2019-05-21T06:25:33.517Z,9.05
2019-05-21T06:28:05.436Z,9.55
2019-05-21T06:30:38.153Z,10.55
2019-05-21T06:33:09.938Z,10.68
2019-05-21T06:35:41.805Z,9.68
2019-05-21T06:38:17.795Z,9.90
2019-05-21T06:40:47.389Z,10.75
2019-05-21T06:43:19.200Z,9.60
2019-05-21T06:45:50.905Z,10.08
2019-05-21T06:48:22.623Z,8.90
2019-05-21T06:50:54.328Z,10.05
2019-05-21T06:53:26.108Z,9.33
2019-05-21T06:55:57.837Z,9.75
2019-05-21T06:58:29.556Z,9.93
2019-05-21T07:01:01.276Z,9.10
2019-05-21T07:03:33.096Z,8.45
2019-05-21T07:06:05.016Z,8.48
2019-05-21T07:08:36.874Z,7.50
2019-05-21T07:11:09.417Z,8.10
2019-05-21T07:13:41.285Z,8.20
2019-05-21T07:16:13.075Z,7.72
2019-05-21T07:18:45.526Z,8.55
2019-05-21T07:21:17.457Z,8.08
2019-05-21T07:23:49.302Z,9.30
2019-05-21T07:26:21.049Z,7.95
2019-05-21T07:28:54.343Z,8.55
2019-05-21T07:31:26.589Z,7.97
2019-05-21T07:33:58.333Z,7.45
2019-05-21T07:36:32.668Z,8.08
2019-05-21T07:39:05.952Z,6.75
2019-05-21T07:41:37.757Z,7.28
2019-05-21T07:44:09.569Z,6.72
2019-05-21T07:46:41.561Z,7.15
2019-05-21T07:49:13.290Z,7.03
2019-05-21T07:51:45.197Z,6.37
2019-05-21T07:54:16.910Z,6.55
2019-05-21T07:56:48.617Z,5.97
2019-05-21T07:59:20.545Z,6.70
2019-05-21T08:01:52.388Z,6.20
2019-05-21T08:04:24.165Z,5.47
2019-05-21T08:06:55.947Z,4.70
2019-05-21T08:09:27.699Z,5.80
2019-05-21T08:11:59.522Z,5.70
2019-05-21T08:14:31.374Z,5.25
2019-05-21T08:17:03.322Z,5.65
2019-05-21T08:19:35.029Z,6.35
2019-05-21T08:22:06.748Z,5.80
2019-05-21T08:24:38.597Z,4.60
2019-05-21T08:27:10.490Z,5.08
2019-05-21T08:29:42.217Z,5.53
2019-05-21T08:32:14.019Z,5.00
2019-05-21T08:34:45.856Z,5.00
2019-05-21T08:37:17.652Z,4.78
2019-05-21T08:39:49.374Z,4.72
2019-05-21T08:42:21.076Z,4.97
2019-05-21T08:44:52.885Z,4.90
2019-05-21T08:47:24.755Z,4.95
2019-05-21T08:49:56.555Z,4.78
2019-05-21T08:52:28.315Z,4.85
2019-05-21T08:55:00.156Z,5.40
2019-05-21T08:57:32.068Z,4.30
2019-05-21T09:00:07.403Z,4.50
2019-05-21T09:02:39.238Z,5.15
2019-05-21T09:05:11.567Z,4.60
2019-05-21T09:07:43.584Z,4.95
2019-05-21T09:10:15.459Z,4.40
2019-05-21T09:12:47.263Z,4.10
2019-05-21T09:15:19.301Z,4.10
2019-05-21T09:17:51.107Z,3.67
2019-05-21T09:20:23.025Z,7.78
2019-05-21T09:22:54.843Z,8.43
2019-05-21T09:25:26.601Z,8.10
2019-05-21T09:27:58.915Z,7.65
2019-05-21T09:30:30.774Z,8.18
2019-05-21T09:33:02.685Z,7.47
2019-05-21T09:35:34.527Z,7.20
2019-05-21T09:38:06.248Z,7.58
2019-05-21T09:40:38.103Z,5.60
2019-05-21T09:43:09.903Z,5.42
2019-05-21T09:45:42.345Z,6.33
2019-05-21T09:48:14.104Z,6.50
2019-05-21T09:50:45.995Z,5.05
2019-05-21T09:53:17.805Z,6.08
2019-05-21T09:55:49.618Z,6.55
2019-05-21T09:58:28.518Z,5.85
2019-05-21T10:01:20.146Z,5.08
2019-05-21T10:03:56.391Z,4.33
2019-05-21T10:06:32.409Z,4.78
2019-05-21T10:09:08.808Z,5.15
2019-05-21T10:11:40.744Z,5.45
2019-05-21T10:14:12.556Z,5.15
2019-05-21T10:16:44.469Z,5.70
2019-05-21T10:19:16.179Z,7.17
2019-05-21T10:21:48.121Z,6.42
2019-05-21T10:24:19.857Z,6.10
2019-05-21T10:26:51.584Z,6.40
2019-05-21T10:29:23.521Z,6.15
2019-05-21T10:31:55.350Z,5.90
2019-05-21T10:34:27.053Z,5.25
2019-05-21T10:36:58.960Z,4.92
2019-05-21T10:39:30.892Z,6.45
2019-05-21T10:42:03.113Z,5.40
2019-05-21T10:44:34.959Z,5.28
2019-05-21T10:47:06.727Z,5.22
2019-05-21T10:49:38.565Z,5.22
2019-05-21T10:52:10.297Z,5.35
2019-05-21T10:54:42.104Z,7.03
2019-05-21T10:57:14.140Z,5.55
2019-05-21T10:59:45.935Z,6.22
2019-05-21T11:02:39.317Z,6.60
2019-05-21T11:05:14.989Z,5.58
2019-05-21T11:07:46.704Z,5.92
2019-05-21T11:10:18.617Z,5.80
2019-05-21T11:12:50.436Z,5.08
2019-05-21T11:15:22.285Z,4.72
2019-05-21T11:18:09.907Z,4.72
2019-05-21T11:20:27.955Z,5.47
2019-05-21T11:22:59.762Z,4.70
2019-05-21T11:25:31.593Z,4.92
2019-05-21T11:28:06.030Z,5.78
2019-05-21T11:30:37.433Z,5.65
2019-05-21T11:33:09.149Z,5.25
2019-05-21T11:35:40.960Z,4.97
2019-05-21T11:38:12.776Z,4.85
2019-05-21T11:40:50.563Z,4.20
2019-05-21T11:43:18.327Z,4.28
2019-05-21T11:45:50.120Z,4.33
2019-05-21T11:48:21.884Z,4.60
2019-05-21T11:50:53.791Z,4.15
2019-05-21T11:53:25.630Z,4.25
2019-05-21T11:55:57.360Z,3.90
2019-05-21T11:58:29.109Z,4.60
2019-05-21T12:01:00.853Z,4.05
2019-05-21T12:03:32.567Z,4.70
2019-05-21T12:06:04.601Z,4.47
2019-05-21T12:08:36.357Z,4.05
2019-05-21T12:11:08.252Z,4.62
2019-05-21T12:13:40.062Z,4.35
2019-05-21T12:16:11.873Z,4.50
2019-05-21T12:18:43.691Z,4.72
2019-05-21T12:21:15.491Z,4.70
2019-05-21T12:23:47.216Z,4.72
2019-05-21T12:26:19.043Z,4.78
2019-05-21T12:28:50.866Z,4.15
2019-05-21T12:31:22.687Z,4.08
2019-05-21T12:33:54.617Z,4.10
2019-05-21T12:36:26.354Z,4.47
2019-05-21T12:39:13.206Z,4.92
2019-05-21T12:41:31.990Z,3.80
2019-05-21T12:44:03.915Z,4.15
2019-05-21T12:46:35.751Z,4.17
2019-05-21T12:49:07.598Z,5.20
2019-05-21T12:51:39.321Z,4.10
2019-05-21T12:54:11.130Z,4.47
2019-05-21T12:56:43.124Z,4.60
2019-05-21T12:59:14.912Z,5.03
2019-05-21T13:01:46.738Z,4.87
2019-05-21T13:04:18.612Z,4.87
2019-05-21T13:06:50.470Z,4.47
2019-05-21T13:09:32.359Z,5.65
2019-05-21T13:11:55.894Z,5.30
2019-05-21T13:14:27.944Z,4.78
2019-05-21T13:17:15.009Z,5.03
2019-05-21T13:19:57.397Z,6.30
2019-05-21T13:22:52.276Z,4.87
2019-05-21T13:25:24.583Z,5.47
2019-05-21T13:27:57.772Z,4.92
2019-05-21T13:30:29.960Z,5.90
2019-05-21T13:33:01.688Z,5.45
2019-05-21T13:35:33.716Z,5.40
2019-05-21T13:38:05.673Z,7.55
2019-05-21T13:40:37.776Z,6.10
2019-05-21T13:43:09.492Z,5.42
2019-05-21T13:45:42.549Z,5.33
2019-05-21T13:48:14.442Z,5.03
2019-05-21T13:50:46.161Z,4.10
2019-05-21T13:53:17.873Z,4.37
2019-05-21T13:55:49.605Z,5.03
2019-05-21T13:58:21.421Z,5.08
2019-05-21T14:00:53.587Z,6.60
2019-05-21T14:03:25.444Z,6.50
2019-05-21T14:05:57.264Z,4.47
2019-05-21T14:08:29.409Z,4.62
2019-05-21T14:11:01.326Z,4.70
2019-05-21T14:13:33.145Z,4.58
2019-05-21T14:16:04.975Z,4.15
2019-05-21T14:18:36.669Z,4.55
2019-05-21T14:21:08.777Z,4.17
2019-05-21T14:23:40.681Z,4.20
2019-05-21T14:26:12.632Z,4.42
2019-05-21T14:28:44.733Z,4.08
2019-05-21T14:31:16.482Z,3.55
2019-05-21T14:33:48.198Z,3.62
2019-05-21T14:36:19.921Z,3.62
2019-05-21T14:38:51.731Z,4.25
2019-05-21T14:41:23.473Z,3.15
2019-05-21T14:43:55.178Z,3.60
2019-05-21T14:46:26.901Z,4.35
2019-05-21T14:48:58.709Z,3.47
2019-05-21T14:51:30.417Z,3.75
2019-05-21T14:54:03.033Z,3.50
2019-05-21T14:56:34.869Z,3.27
2019-05-21T14:59:06.589Z,3.12
2019-05-21T15:01:38.420Z,3.62
2019-05-21T15:04:10.366Z,3.83
2019-05-21T15:06:42.238Z,3.20
2019-05-21T15:09:14.074Z,3.85
2019-05-21T15:11:45.844Z,3.60
2019-05-21T15:14:17.553Z,3.37
2019-05-21T15:16:49.471Z,4.20
2019-05-21T15:19:21.390Z,3.60
2019-05-21T15:21:54.520Z,3.42
2019-05-21T15:24:26.232Z,3.45
2019-05-21T15:26:57.976Z,3.80
2019-05-21T15:29:29.760Z,3.72
2019-05-21T15:32:01.514Z,4.47
2019-05-21T15:34:33.228Z,4.37
2019-05-21T15:37:05.017Z,4.40
2019-05-21T15:39:36.796Z,3.83
2019-05-21T15:42:08.680Z,4.30
2019-05-21T15:44:40.400Z,4.78
2019-05-21T15:47:12.217Z,4.58
2019-05-21T15:49:43.940Z,5.50
2019-05-21T15:52:15.673Z,4.55
2019-05-21T15:54:47.361Z,5.80
2019-05-21T15:57:19.075Z,4.87
2019-05-21T15:59:50.887Z,4.58
2019-05-21T16:02:22.716Z,5.45
2019-05-21T16:04:54.426Z,5.20
2019-05-21T16:07:26.281Z,5.35
2019-05-21T16:09:58.088Z,5.87
2019-05-21T16:12:30.132Z,5.70
2019-05-21T16:15:02.586Z,5.22
2019-05-21T16:17:34.669Z,6.03
2019-05-21T16:20:07.031Z,5.75
2019-05-21T16:22:38.769Z,6.47
2019-05-21T16:25:11.106Z,6.92
2019-05-21T16:27:49.864Z,6.00
2019-05-21T16:30:22.172Z,5.95
2019-05-21T16:32:53.896Z,6.10
2019-05-21T16:35:25.722Z,6.17
2019-05-21T16:37:57.920Z,7.00
2019-05-21T16:40:29.763Z,5.85
2019-05-21T16:43:01.687Z,6.15
2019-05-21T16:45:33.510Z,6.12
2019-05-21T16:48:05.553Z,6.10
2019-05-21T16:50:37.458Z,5.53
2019-05-21T16:53:09.212Z,6.20
2019-05-21T16:55:40.941Z,6.53
2019-05-21T16:58:12.881Z,6.30
2019-05-21T17:00:44.792Z,5.95
2019-05-21T17:03:16.617Z,5.67
2019-05-21T17:05:48.559Z,7.53
2019-05-21T17:08:20.376Z,5.92
2019-05-21T17:10:52.104Z,6.58
2019-05-21T17:13:23.919Z,6.12
2019-05-21T17:15:55.630Z,5.05
2019-05-21T17:18:27.361Z,4.58
2019-05-21T17:20:59.187Z,5.22
2019-05-21T17:23:31.012Z,4.72
2019-05-21T17:26:02.759Z,4.15
2019-05-21T17:28:34.504Z,4.30
2019-05-21T17:31:06.305Z,3.75
2019-05-21T17:33:38.152Z,4.00
2019-05-21T17:36:09.988Z,4.33
2019-05-21T17:38:41.869Z,3.80
2019-05-21T17:41:13.589Z,4.10
2019-05-21T17:43:45.564Z,4.00
2019-05-21T17:46:17.466Z,4.30
2019-05-21T17:48:49.284Z,4.20
2019-05-21T17:51:21.094Z,4.37
2019-05-21T17:53:52.905Z,4.17
2019-05-21T17:56:24.714Z,4.53
2019-05-21T17:58:56.586Z,4.75
2019-05-21T18:01:28.491Z,4.40
2019-05-21T18:04:00.749Z,4.03
2019-05-21T18:06:32.557Z,4.77
2019-05-21T18:09:07.608Z,4.93
2019-05-21T18:11:39.342Z,3.40
2019-05-21T18:14:11.185Z,4.43
2019-05-21T18:16:43.190Z,4.70
2019-05-21T18:19:15.015Z,5.23
2019-05-21T18:21:47.509Z,5.97
2019-05-21T18:24:19.441Z,6.53
2019-05-21T18:26:51.368Z,6.00
2019-05-21T18:29:23.330Z,5.80
2019-05-21T18:31:55.268Z,5.77
2019-05-21T18:34:26.976Z,4.90
2019-05-21T18:36:58.787Z,5.30
2019-05-21T18:39:31.036Z,4.87
2019-05-21T18:42:03.166Z,6.13
2019-05-21T18:44:34.996Z,5.60
2019-05-21T18:47:06.809Z,5.33
2019-05-21T18:49:38.652Z,6.17
2019-05-21T18:52:10.539Z,5.90
2019-05-21T18:54:42.424Z,5.60
2019-05-21T18:57:14.179Z,5.00
2019-05-21T18:59:45.926Z,5.27
2019-05-21T19:02:18.243Z,4.60
2019-05-21T19:04:50.182Z,4.20
2019-05-21T19:07:22.202Z,4.20
2019-05-21T19:09:54.126Z,4.03
2019-05-21T19:12:37.368Z,4.47
2019-05-21T19:15:00.185Z,4.37
2019-05-21T19:17:35.715Z,4.33
2019-05-21T19:20:06.366Z,4.23
2019-05-21T19:22:38.221Z,5.07
2019-05-21T19:25:10.259Z,5.90
2019-05-21T19:27:42.096Z,4.43
2019-05-21T19:30:14.946Z,5.17
2019-05-21T19:32:46.823Z,4.77
2019-05-21T19:35:18.967Z,6.60
2019-05-21T19:37:50.893Z,6.33
2019-05-21T19:40:22.709Z,6.80
2019-05-21T19:42:55.680Z,8.03
2019-05-21T19:45:31.189Z,8.43
2019-05-21T19:48:01.830Z,8.73
2019-05-21T19:50:34.164Z,9.10
2019-05-21T19:53:06.095Z,8.90
2019-05-21T19:55:39.033Z,9.70
2019-05-21T19:58:10.950Z,12.03
2019-05-21T20:00:51.582Z,14.03
2019-05-21T20:03:24.211Z,13.23
2019-05-21T20:05:57.952Z,12.33
2019-05-21T20:08:29.680Z,13.57
2019-05-21T20:11:03.300Z,15.13
2019-05-21T20:13:35.220Z,13.87
2019-05-21T20:16:07.445Z,15.23
2019-05-21T20:18:39.258Z,14.73
2019-05-21T20:21:13.590Z,14.67
2019-05-21T20:23:46.836Z,14.37
2019-05-21T20:26:20.890Z,14.03
2019-05-21T20:28:53.537Z,13.80
2019-05-21T20:31:25.276Z,14.63
2019-05-21T20:33:57.437Z,14.30
2019-05-21T20:36:29.444Z,14.93
2019-05-21T20:39:01.585Z,14.87
2019-05-21T20:41:35.208Z,16.80
2019-05-21T20:44:09.463Z,16.80
2019-05-21T20:46:41.678Z,16.73
2019-05-21T20:49:14.048Z,15.33
2019-05-21T20:51:46.337Z,14.67
2019-05-21T20:54:20.086Z,15.87
2019-05-21T20:56:52.499Z,18.13
2019-05-21T20:59:24.531Z,17.83
2019-05-21T21:01:56.848Z,15.07
2019-05-21T21:04:28.865Z,14.50
2019-05-21T21:07:00.685Z,14.00
2019-05-21T21:09:32.687Z,16.07
2019-05-21T21:12:05.308Z,14.57
2019-05-21T21:14:38.913Z,14.87
2019-05-21T21:17:12.979Z,14.27
2019-05-21T21:19:44.794Z,15.17
2019-05-21T21:22:16.636Z,15.00
2019-05-21T21:24:48.546Z,15.07
2019-05-21T21:27:20.269Z,15.63
2019-05-21T21:29:52.397Z,13.70
2019-05-21T21:32:24.663Z,15.80
2019-05-21T21:34:56.567Z,16.97
2019-05-21T21:37:28.390Z,15.90
2019-05-21T21:40:00.494Z,16.00
2019-05-21T21:42:32.965Z,14.90
2019-05-21T21:45:04.906Z,16.87
2019-05-21T21:47:37.840Z,16.13
2019-05-21T21:50:10.784Z,15.30
2019-05-21T21:52:43.636Z,17.30
2019-05-21T21:55:16.247Z,15.97
2019-05-21T21:57:47.968Z,16.77
2019-05-21T22:01:00.268Z,16.70
2019-05-21T22:03:35.709Z,17.27
2019-05-21T22:06:09.119Z,16.03
2019-05-21T22:08:41.138Z,17.20
2019-05-21T22:11:12.976Z,17.03
2019-05-21T22:13:45.443Z,16.90
2019-05-21T22:16:17.615Z,16.47
2019-05-21T22:18:49.950Z,19.17
2019-05-21T22:21:22.060Z,17.63
2019-05-21T22:23:54.215Z,19.20
2019-05-21T22:26:26.421Z,16.13
2019-05-21T22:28:58.126Z,18.43
2019-05-21T22:31:29.828Z,17.13
2019-05-21T22:34:01.742Z,18.63
2019-05-21T22:36:33.443Z,18.37
2019-05-21T22:39:09.236Z,18.27
2019-05-21T22:41:41.123Z,19.67
2019-05-21T22:44:13.165Z,21.53
2019-05-21T22:46:45.593Z,20.30
2019-05-21T22:49:17.446Z,21.23
2019-05-21T22:51:49.344Z,21.50
2019-05-21T22:54:21.785Z,20.37
2019-05-21T22:56:53.666Z,22.70
2019-05-21T22:59:25.421Z,21.40
2019-05-21T23:01:59.227Z,21.77
2019-05-21T23:04:30.941Z,21.60
2019-05-21T23:07:03.992Z,21.13
2019-05-21T23:09:35.997Z,21.87
2019-05-21T23:12:09.219Z,21.70
2019-05-21T23:14:41.343Z,21.23
2019-05-21T23:17:13.582Z,22.87
2019-05-21T23:19:46.729Z,22.13
2019-05-21T23:22:20.838Z,23.10
2019-05-21T23:24:53.567Z,22.83
2019-05-21T23:27:26.693Z,22.70
2019-05-21T23:29:58.524Z,20.27
2019-05-21T23:32:30.362Z,20.90
2019-05-21T23:35:03.058Z,20.47
2019-05-21T23:37:37.902Z,20.10
2019-05-21T23:40:11.409Z,19.03
2019-05-21T23:42:43.251Z,18.93
2019-05-21T23:45:15.940Z,18.70
2019-05-21T23:47:47.977Z,19.03
2019-05-21T23:50:20.158Z,19.20
2019-05-21T23:52:53.300Z,17.87
2019-05-21T23:55:25.224Z,17.27
2019-05-21T23:57:57.147Z,16.53
